Home   Weather   Germany   Unna   Past weeks
Flag for Germany

Past Weather in Unna, North Rhine-Westphalia, Germany — Yesterday and Last 2 Weeks

Currently: 72 °F. Sunny. (Weather station: Dortmund / Wickede, Germany). See more current weather

Past Weather in Unna — Graph

°F

Unna Temperature Yesterday

Maximum temperature yesterday: 79 °F (at 11:50 am)
Minimum temperature yesterday: 68 °F (at 5:50 am)
Average temperature yesterday: 74 °F

High & Low Weather Summary for the Past Weeks

 TemperatureHumidityPressure
High93 °F (Aug 4, 11:50 am)100% (Aug 5, 6:50 am)30.36 "Hg (Aug 5, 6:50 am)
Low46 °F (Aug 6, 5:50 am)20% (Aug 12, 5:20 pm)29.62 "Hg (Aug 15, 3:50 am)
Average71 °F56%30.07 "Hg
* Reported Aug 1 8:20 am — Aug 16 8:20 am, Unna. Weather by CustomWeather, © 2022

Note: Actual official high and low records may vary slightly from our data, if they occured in-between our weather recording intervals... More about our weather records

Unna Weather History for the Previous 24 Hours

Scroll right to see more
 ConditionsComfort  
Time TempWeatherWind HumidityBarometerVisibility
8:20 am
Tue, Aug 16
68 °FSunny.10 mph69%29.74 "Hg10 mi
7:50 am68 °FSunny.10 mph69%29.74 "Hg10 mi
7:20 am66 °FSunny.9 mph73%29.74 "Hg10 mi
6:50 am64 °FSunny.9 mph78%29.74 "Hg10 mi
6:20 am66 °FSunny.9 mph73%29.74 "Hg10 mi
5:50 am64 °FClear.9 mph78%29.74 "Hg10 mi
5:20 am66 °FClear.9 mph73%29.71 "Hg10 mi
4:50 am66 °FClear.8 mph73%29.71 "HgN/A
4:20 am66 °FClear.9 mph73%29.71 "HgN/A
3:50 am64 °FClear.9 mph78%29.71 "HgN/A
2:50 am66 °FClear.7 mph73%29.74 "HgN/A
1:20 am66 °FPassing clouds.7 mph73%29.71 "HgN/A
12:50 am66 °FPassing clouds.6 mph73%29.71 "HgN/A
12:20 am68 °FPassing clouds.5 mph69%29.71 "HgN/A
11:20 pm
Mon, Aug 15
70 °FPassing clouds.6 mph64%29.71 "HgN/A
10:50 pm70 °FClear.5 mph64%29.71 "Hg10 mi
10:20 pm70 °FClear.5 mph64%29.71 "Hg10 mi
9:20 pm70 °FClear.5 mph64%29.71 "Hg10 mi
8:50 pm72 °FSunny.6 mph61%29.68 "Hg10 mi
8:20 pm72 °FSunny.5 mph57%29.68 "Hg10 mi
7:50 pm75 °FSunny.6 mph54%29.68 "Hg10 mi
7:20 pm75 °FSunny.9 mph54%29.68 "Hg10 mi
6:50 pm77 °FSunny.10 mph47%29.68 "Hg10 mi
6:20 pm77 °FPassing clouds.8 mph51%29.68 "HgN/A
5:50 pm79 °FPassing clouds.10 mph51%29.68 "HgN/A
5:20 pm77 °FSunny.12 mph54%29.68 "Hg10 mi
4:50 pm75 °FPassing clouds.13 mph57%29.68 "HgN/A
4:20 pm77 °FPassing clouds.10 mph54%29.68 "HgN/A
3:50 pm77 °FSunny.10 mph54%29.68 "Hg10 mi
3:20 pm77 °FSunny.10 mph54%29.68 "Hg10 mi
2:50 pm77 °FPassing clouds.10 mph51%29.68 "HgN/A
2:20 pm79 °FPassing clouds.8 mph48%29.68 "HgN/A
1:50 pm79 °FSunny.8 mph48%29.68 "Hg10 mi
1:20 pm79 °FPassing clouds.7 mph48%29.68 "HgN/A
12:50 pm79 °FPassing clouds.8 mph48%29.68 "HgN/A
12:20 pm77 °FPassing clouds.10 mph51%29.65 "HgN/A
11:50 am79 °FPassing clouds.12 mph51%29.65 "HgN/A
11:20 am75 °FPassing clouds.10 mph57%29.65 "HgN/A
10:50 am73 °FSunny.14 mph57%29.65 "Hg10 mi
10:20 am73 °FPassing clouds.12 mph53%29.65 "HgN/A
Weather by CustomWeather, © 2022

See weather overview